This is the latest recevied weather packets stored in our database for station/object KC3JUG-13. If no packets are shown the sender has not sent any weather packets the latest 10 day(s).
| Time | Temp. | Humidity | Pressure | Rain* | Wind** | Luminosity | Snow |
|---|---|---|---|---|---|---|---|
| 1777345014 | 11.67° C | 67% | 1026.1 hPa | 0 mm | - | - | - |
| 1777344235 | 11.67° C | 67% | 1026.1 hPa | 0 mm | - | - | - |
| 1777343454 | 11.67° C | 66% | 1026.3 hPa | 0 mm | - | - | - |
| 1777342674 | 11.67° C | 66% | 1026.3 hPa | 0 mm | - | - | - |
| 1777341894 | 11.67° C | 67% | 1026.4 hPa | 0 mm | - | - | - |
| 1777341114 | 12.22° C | 67% | 1026.7 hPa | 0 mm | - | - | - |
| 1777340334 | 12.22° C | 67% | 1026.5 hPa | 0 mm | - | - | - |
| 1777339554 | 12.78° C | 68% | 1026.6 hPa | 0 mm | - | - | - |
| 1777338774 | 13.33° C | 69% | 1026.5 hPa | 0 mm | - | - | - |
| 1777337995 | 13.89° C | 68% | 1026.4 hPa | 0 mm | - | - | - |
| 1777337215 | 14.44° C | 65% | 1026 hPa | 0 mm | - | - | - |
| 1777336435 | 13.89° C | 66% | 1025.5 hPa | 0 mm | - | - | - |
| 1777335655 | 14.44° C | 66% | 1025.4 hPa | 0 mm | - | - | - |
| 1777334875 | 15.56° C | 63% | 1025.2 hPa | 0 mm | - | - | - |
| 1777334095 | 16.11° C | 60% | 1025.1 hPa | 0 mm | - | - | - |
| 1777333315 | 17.22° C | 56% | 1024.8 hPa | 0 mm | - | - | - |
| 1777332535 | 17.78° C | 54% | 1025.1 hPa | 0 mm | - | - | - |
| 1777331755 | 17.78° C | 53% | 1024.9 hPa | 0 mm | - | - | - |
| 1777330975 | 18.33° C | 54% | 1024.8 hPa | 0 mm | - | - | - |
| 1777330195 | 18.33° C | 53% | 1024.6 hPa | 0 mm | - | - | - |
| 1777329415 | 18.89° C | 51% | 1024.7 hPa | 0 mm | - | - | - |
| 1777328635 | 18.89° C | 50% | 1024.7 hPa | 0 mm | - | - | - |
| 1777327855 | 18.89° C | 51% | 1024.6 hPa | 0 mm | - | - | - |
| 1777327075 | 19.44° C | 50% | 1024.7 hPa | 0 mm | - | - | - |
| 1777326295 | 19.44° C | 49% | 1024.7 hPa | 0 mm | - | - | - |
* Rain latest hour (hover to see other rain measurements)
** Current wind speed in m/s (hover to see current wind gust speed)